sensor_id;sensor_type;location;lat;lon;timestamp;pressure;altitude;pressure_sealevel;temperature;humidity
71938;BME280;59810;48.800;9.086;2023-04-30T00:00:16;97941.72;;;10.67;89.96
71938;BME280;59810;48.800;9.086;2023-04-30T00:02:42;97947.34;;;10.65;90.39
71938;BME280;59810;48.800;9.086;2023-04-30T00:05:08;97943.59;;;10.66;90.32
71938;BME280;59810;48.800;9.086;2023-04-30T00:07:33;97948.50;;;10.69;89.87
71938;BME280;59810;48.800;9.086;2023-04-30T00:09:59;97938.28;;;10.71;89.68
71938;BME280;59810;48.800;9.086;2023-04-30T00:12:24;97939.50;;;10.64;90.78
71938;BME280;59810;48.800;9.086;2023-04-30T00:14:49;97938.00;;;10.56;91.11
71938;BME280;59810;48.800;9.086;2023-04-30T00:17:19;97935.56;;;10.54;91.82
71938;BME280;59810;48.800;9.086;2023-04-30T00:19:47;97939.00;;;10.50;91.47
71938;BME280;59810;48.800;9.086;2023-04-30T00:22:12;97932.94;;;10.43;91.85
71938;BME280;59810;48.800;9.086;2023-04-30T00:24:38;97936.06;;;10.40;92.48
71938;BME280;59810;48.800;9.086;2023-04-30T00:27:03;97936.06;;;10.40;92.49
71938;BME280;59810;48.800;9.086;2023-04-30T00:29:28;97939.84;;;10.39;92.97
71938;BME280;59810;48.800;9.086;2023-04-30T00:31:54;97939.38;;;10.42;91.98
71938;BME280;59810;48.800;9.086;2023-04-30T00:34:19;97942.41;;;10.45;91.37
71938;BME280;59810;48.800;9.086;2023-04-30T00:36:44;97939.22;;;10.48;91.30
71938;BME280;59810;48.800;9.086;2023-04-30T00:39:12;97940.88;;;10.49;91.20
71938;BME280;59810;48.800;9.086;2023-04-30T00:41:38;97947.56;;;10.47;91.47
71938;BME280;59810;48.800;9.086;2023-04-30T00:44:03;97946.28;;;10.49;91.23
71938;BME280;59810;48.800;9.086;2023-04-30T00:46:30;97946.59;;;10.53;90.72
71938;BME280;59810;48.800;9.086;2023-04-30T00:48:58;97946.84;;;10.51;90.45
71938;BME280;59810;48.800;9.086;2023-04-30T00:51:28;97951.75;;;10.54;90.21
71938;BME280;59810;48.800;9.086;2023-04-30T00:54:01;97946.13;;;10.56;89.88
71938;BME280;59810;48.800;9.086;2023-04-30T00:56:30;97953.63;;;10.54;90.28
71938;BME280;59810;48.800;9.086;2023-04-30T00:58:55;97949.69;;;10.45;91.20
71938;BME280;59810;48.800;9.086;2023-04-30T01:01:23;97946.66;;;10.41;91.61
71938;BME280;59810;48.800;9.086;2023-04-30T01:03:49;97954.88;;;10.35;92.25
71938;BME280;59810;48.800;9.086;2023-04-30T01:06:14;97951.25;;;10.29;92.27
71938;BME280;59810;48.800;9.086;2023-04-30T01:08:40;97949.28;;;10.24;92.61
71938;BME280;59810;48.800;9.086;2023-04-30T01:13:39;97953.63;;;10.25;92.79
71938;BME280;59810;48.800;9.086;2023-04-30T01:16:16;97943.91;;;10.24;91.89
71938;BME280;59810;48.800;9.086;2023-04-30T01:18:48;97945.78;;;10.24;91.54
71938;BME280;59810;48.800;9.086;2023-04-30T01:21:17;97945.53;;;10.25;91.79
71938;BME280;59810;48.800;9.086;2023-04-30T01:26:47;97934.25;;;10.28;90.19
71938;BME280;59810;48.800;9.086;2023-04-30T01:29:20;97928.84;;;10.28;89.46
71938;BME280;59810;48.800;9.086;2023-04-30T01:31:51;97924.53;;;10.27;90.27
71938;BME280;59810;48.800;9.086;2023-04-30T01:34:16;97924.75;;;10.26;90.32
71938;BME280;59810;48.800;9.086;2023-04-30T01:42:41;97926.16;;;10.28;89.78
71938;BME280;59810;48.800;9.086;2023-04-30T01:53:23;97927.56;;;10.19;90.76
71938;BME280;59810;48.800;9.086;2023-04-30T01:56:05;97936.63;;;10.13;89.73
71938;BME280;59810;48.800;9.086;2023-04-30T01:58:30;97935.00;;;10.12;89.98
71938;BME280;59810;48.800;9.086;2023-04-30T02:00:56;97942.03;;;10.13;91.52
71938;BME280;59810;48.800;9.086;2023-04-30T02:03:22;97933.00;;;10.08;90.95
71938;BME280;59810;48.800;9.086;2023-04-30T02:05:52;97940.88;;;10.09;90.85
71938;BME280;59810;48.800;9.086;2023-04-30T02:08:17;97934.19;;;10.12;91.12
71938;BME280;59810;48.800;9.086;2023-04-30T02:10:43;97931.97;;;10.09;91.81
71938;BME280;59810;48.800;9.086;2023-04-30T02:13:10;97931.59;;;10.05;91.81
71938;BME280;59810;48.800;9.086;2023-04-30T02:15:36;97922.91;;;10.03;91.25
71938;BME280;59810;48.800;9.086;2023-04-30T02:18:03;97929.72;;;10.06;90.91
71938;BME280;59810;48.800;9.086;2023-04-30T02:20:29;97925.75;;;10.08;90.40
71938;BME280;59810;48.800;9.086;2023-04-30T02:22:54;97930.09;;;10.09;90.23
71938;BME280;59810;48.800;9.086;2023-04-30T02:25:19;97927.97;;;10.11;90.20
71938;BME280;59810;48.800;9.086;2023-04-30T02:27:45;97927.25;;;10.04;90.61
71938;BME280;59810;48.800;9.086;2023-04-30T02:30:10;97936.16;;;10.05;90.20
71938;BME280;59810;48.800;9.086;2023-04-30T02:32:38;97925.13;;;10.06;90.06
71938;BME280;59810;48.800;9.086;2023-04-30T02:35:04;97927.25;;;10.04;89.61
71938;BME280;59810;48.800;9.086;2023-04-30T02:37:29;97938.75;;;9.99;90.16
71938;BME280;59810;48.800;9.086;2023-04-30T02:39:57;97929.78;;;9.82;91.18
71938;BME280;59810;48.800;9.086;2023-04-30T02:42:22;97933.88;;;9.85;91.12
71938;BME280;59810;48.800;9.086;2023-04-30T02:44:48;97933.66;;;9.75;91.80
71938;BME280;59810;48.800;9.086;2023-04-30T02:47:13;97931.78;;;9.75;91.48
71938;BME280;59810;48.800;9.086;2023-04-30T02:49:39;97925.78;;;9.73;90.39
71938;BME280;59810;48.800;9.086;2023-04-30T02:52:07;97923.47;;;9.77;90.25
71938;BME280;59810;48.800;9.086;2023-04-30T02:54:34;97925.56;;;9.75;90.40
71938;BME280;59810;48.800;9.086;2023-04-30T02:56:59;97927.66;;;9.73;89.89
71938;BME280;59810;48.800;9.086;2023-04-30T02:59:24;97927.66;;;9.73;89.51
71938;BME280;59810;48.800;9.086;2023-04-30T03:01:53;97927.81;;;9.78;89.29
71938;BME280;59810;48.800;9.086;2023-04-30T03:04:18;97931.91;;;9.80;89.39
71938;BME280;59810;48.800;9.086;2023-04-30T03:06:44;97923.56;;;9.82;89.04
71938;BME280;59810;48.800;9.086;2023-04-30T03:09:10;97927.91;;;9.83;89.38
71938;BME280;59810;48.800;9.086;2023-04-30T03:11:37;97931.19;;;9.85;89.14
71938;BME280;59810;48.800;9.086;2023-04-30T03:14:03;97926.63;;;9.85;89.26
71938;BME280;59810;48.800;9.086;2023-04-30T03:16:29;97927.34;;;9.81;90.24
71938;BME280;59810;48.800;9.086;2023-04-30T03:18:55;97927.47;;;9.62;91.01
71938;BME280;59810;48.800;9.086;2023-04-30T03:21:20;97930.06;;;9.57;92.20
71938;BME280;59810;48.800;9.086;2023-04-30T03:23:50;97928.31;;;9.51;90.54
71938;BME280;59810;48.800;9.086;2023-04-30T03:26:16;97923.72;;;9.52;91.15
71938;BME280;59810;48.800;9.086;2023-04-30T03:28:41;97922.56;;;9.48;90.67
71938;BME280;59810;48.800;9.086;2023-04-30T03:31:06;97917.66;;;9.45;91.60
71938;BME280;59810;48.800;9.086;2023-04-30T03:33:32;97922.22;;;9.44;90.62
71938;BME280;59810;48.800;9.086;2023-04-30T03:35:57;97921.75;;;9.47;91.08
71938;BME280;59810;48.800;9.086;2023-04-30T03:38:25;97922.91;;;9.51;91.66
71938;BME280;59810;48.800;9.086;2023-04-30T03:40:50;97914.25;;;9.49;91.63
71938;BME280;59810;48.800;9.086;2023-04-30T03:43:15;97919.28;;;9.46;91.70
71938;BME280;59810;48.800;9.086;2023-04-30T03:45:41;97929.69;;;9.42;91.63
71938;BME280;59810;48.800;9.086;2023-04-30T03:48:06;97924.78;;;9.39;91.72
71938;BME280;59810;48.800;9.086;2023-04-30T03:50:33;97927.94;;;9.36;92.62
71938;BME280;59810;48.800;9.086;2023-04-30T03:52:58;97925.72;;;9.33;92.11
71938;BME280;59810;48.800;9.086;2023-04-30T03:55:26;97927.59;;;9.32;91.93
71938;BME280;59810;48.800;9.086;2023-04-30T03:57:52;97928.88;;;9.30;92.55
71938;BME280;59810;48.800;9.086;2023-04-30T04:00:17;97928.66;;;9.31;92.46
71938;BME280;59810;48.800;9.086;2023-04-30T04:02:43;97923.50;;;9.30;92.41
71938;BME280;59810;48.800;9.086;2023-04-30T04:05:08;97921.50;;;9.25;92.03
71938;BME280;59810;48.800;9.086;2023-04-30T04:07:34;97928.06;;;9.29;92.49
71938;BME280;59810;48.800;9.086;2023-04-30T04:10:01;97932.06;;;9.27;91.97
71938;BME280;59810;48.800;9.086;2023-04-30T04:12:27;97930.41;;;9.26;92.43
71938;BME280;59810;48.800;9.086;2023-04-30T04:14:52;97934.16;;;9.25;92.57
71938;BME280;59810;48.800;9.086;2023-04-30T04:17:17;97943.88;;;9.26;93.17
71938;BME280;59810;48.800;9.086;2023-04-30T04:19:45;97936.28;;;9.23;92.89
71938;BME280;59810;48.800;9.086;2023-04-30T04:22:10;97939.06;;;9.28;93.36
71938;BME280;59810;48.800;9.086;2023-04-30T04:24:36;97941.19;;;9.26;92.72
71938;BME280;59810;48.800;9.086;2023-04-30T04:27:02;97942.59;;;9.28;92.51
71938;BME280;59810;48.800;9.086;2023-04-30T04:29:28;97941.41;;;9.24;92.74
71938;BME280;59810;48.800;9.086;2023-04-30T04:31:54;97936.63;;;9.26;93.08
71938;BME280;59810;48.800;9.086;2023-04-30T04:34:20;97944.59;;;9.33;93.28
71938;BME280;59810;48.800;9.086;2023-04-30T04:36:45;97942.47;;;9.35;91.97
71938;BME280;59810;48.800;9.086;2023-04-30T04:39:13;97951.13;;;9.37;92.34
71938;BME280;59810;48.800;9.086;2023-04-30T04:41:38;97955.47;;;9.38;92.06
71938;BME280;59810;48.800;9.086;2023-04-30T04:44:04;97948.44;;;9.37;92.52
71938;BME280;59810;48.800;9.086;2023-04-30T04:46:30;97948.09;;;9.33;92.66
71938;BME280;59810;48.800;9.086;2023-04-30T04:48:56;97947.75;;;9.30;93.25
71938;BME280;59810;48.800;9.086;2023-04-30T04:51:22;97945.50;;;9.39;92.82
71938;BME280;59810;48.800;9.086;2023-04-30T04:53:51;97943.41;;;9.41;91.86
71938;BME280;59810;48.800;9.086;2023-04-30T04:56:18;97944.22;;;9.41;91.89
71938;BME280;59810;48.800;9.086;2023-04-30T04:58:44;97947.97;;;9.40;91.78
71938;BME280;59810;48.800;9.086;2023-04-30T05:01:10;97948.13;;;9.45;92.37
71938;BME280;59810;48.800;9.086;2023-04-30T05:03:37;97944.94;;;9.48;92.03
71938;BME280;59810;48.800;9.086;2023-04-30T05:06:03;97948.81;;;9.52;92.60
71938;BME280;59810;48.800;9.086;2023-04-30T05:08:29;97941.88;;;9.56;91.87
71938;BME280;59810;48.800;9.086;2023-04-30T05:10:58;97952.44;;;9.58;92.53
71938;BME280;59810;48.800;9.086;2023-04-30T05:13:23;97952.53;;;9.63;91.88
71938;BME280;59810;48.800;9.086;2023-04-30T05:15:52;97944.81;;;9.66;92.93
71938;BME280;59810;48.800;9.086;2023-04-30T05:18:18;97948.06;;;9.68;92.59
71938;BME280;59810;48.800;9.086;2023-04-30T05:20:45;97953.22;;;9.70;90.59
71938;BME280;59810;48.800;9.086;2023-04-30T05:23:13;97955.84;;;9.77;90.41
71938;BME280;59810;48.800;9.086;2023-04-30T05:25:39;97949.97;;;9.80;90.62
71938;BME280;59810;48.800;9.086;2023-04-30T05:28:04;97946.22;;;9.81;91.53
71938;BME280;59810;48.800;9.086;2023-04-30T05:30:30;97951.84;;;9.79;91.51
71938;BME280;59810;48.800;9.086;2023-04-30T05:32:56;97952.53;;;9.86;90.31
71938;BME280;59810;48.800;9.086;2023-04-30T05:35:21;97955.91;;;9.93;90.02
71938;BME280;59810;48.800;9.086;2023-04-30T05:37:47;97953.56;;;9.97;90.90
71938;BME280;59810;48.800;9.086;2023-04-30T05:40:13;97954.59;;;9.96;90.34
71938;BME280;59810;48.800;9.086;2023-04-30T05:42:41;97958.22;;;10.13;94.67
71938;BME280;59810;48.800;9.086;2023-04-30T05:45:11;97954.22;;;10.16;89.72
71938;BME280;59810;48.800;9.086;2023-04-30T05:47:38;97957.38;;;10.24;89.11
71938;BME280;59810;48.800;9.086;2023-04-30T05:50:04;97957.00;;;10.33;88.72
71938;BME280;59810;48.800;9.086;2023-04-30T05:52:32;97953.34;;;10.39;88.40
71938;BME280;59810;48.800;9.086;2023-04-30T05:55:00;97947.94;;;10.39;87.86
71938;BME280;59810;48.800;9.086;2023-04-30T05:57:25;97946.84;;;10.51;86.23
71938;BME280;59810;48.800;9.086;2023-04-30T05:59:50;97946.94;;;10.56;85.87
71938;BME280;59810;48.800;9.086;2023-04-30T06:02:16;97948.91;;;10.61;86.73
71938;BME280;59810;48.800;9.086;2023-04-30T06:04:41;97949.16;;;10.59;84.13
71938;BME280;59810;48.800;9.086;2023-04-30T06:07:07;97954.47;;;10.71;84.80
71938;BME280;59810;48.800;9.086;2023-04-30T06:09:32;97955.31;;;10.72;83.29
71938;BME280;59810;48.800;9.086;2023-04-30T06:11:58;97954.03;;;10.74;83.15
71938;BME280;59810;48.800;9.086;2023-04-30T06:14:24;97956.13;;;10.72;82.61
71938;BME280;59810;48.800;9.086;2023-04-30T06:16:49;97953.72;;;10.87;82.50
71938;BME280;59810;48.800;9.086;2023-04-30T06:19:15;97960.66;;;11.00;82.63
71938;BME280;59810;48.800;9.086;2023-04-30T06:21:42;97962.25;;;11.13;81.54
71938;BME280;59810;48.800;9.086;2023-04-30T06:24:08;97965.94;;;11.07;80.79
71938;BME280;59810;48.800;9.086;2023-04-30T06:26:36;97963.88;;;11.14;79.39
71938;BME280;59810;48.800;9.086;2023-04-30T06:29:03;97968.47;;;11.30;80.42
71938;BME280;59810;48.800;9.086;2023-04-30T06:31:29;97960.09;;;11.32;78.56
71938;BME280;59810;48.800;9.086;2023-04-30T06:33:54;97960.59;;;11.29;78.89
71938;BME280;59810;48.800;9.086;2023-04-30T06:36:22;97957.25;;;11.38;79.43
71938;BME280;59810;48.800;9.086;2023-04-30T06:38:47;97957.34;;;11.43;79.15
71938;BME280;59810;48.800;9.086;2023-04-30T06:41:13;97958.44;;;11.64;79.53
71938;BME280;59810;48.800;9.086;2023-04-30T06:43:39;97965.34;;;11.72;78.17
71938;BME280;59810;48.800;9.086;2023-04-30T06:46:04;97960.59;;;11.79;78.26
71938;BME280;59810;48.800;9.086;2023-04-30T06:48:31;97958.25;;;11.88;77.75
71938;BME280;59810;48.800;9.086;2023-04-30T06:50:56;97966.88;;;11.84;76.45
71938;BME280;59810;48.800;9.086;2023-04-30T06:53:21;97968.34;;;11.92;76.35
71938;BME280;59810;48.800;9.086;2023-04-30T06:55:47;97968.97;;;11.99;76.33
71938;BME280;59810;48.800;9.086;2023-04-30T06:58:15;97971.41;;;11.79;76.42
71938;BME280;59810;48.800;9.086;2023-04-30T07:00:41;97974.34;;;11.77;76.17
71938;BME280;59810;48.800;9.086;2023-04-30T07:03:07;97967.28;;;11.60;75.38
71938;BME280;59810;48.800;9.086;2023-04-30T07:05:34;97973.63;;;11.82;76.98
71938;BME280;59810;48.800;9.086;2023-04-30T07:08:01;97966.47;;;11.76;76.31
71938;BME280;59810;48.800;9.086;2023-04-30T07:10:27;97961.72;;;11.83;77.73
71938;BME280;59810;48.800;9.086;2023-04-30T07:12:53;97958.38;;;11.98;77.23
71938;BME280;59810;48.800;9.086;2023-04-30T07:15:19;97957.16;;;12.05;76.09
71938;BME280;59810;48.800;9.086;2023-04-30T07:17:44;97957.25;;;11.94;75.16
71938;BME280;59810;48.800;9.086;2023-04-30T07:20:12;97956.41;;;12.10;75.69
71938;BME280;59810;48.800;9.086;2023-04-30T07:22:41;97957.91;;;12.23;73.51
71938;BME280;59810;48.800;9.086;2023-04-30T07:25:09;97952.69;;;12.38;74.75
71938;BME280;59810;48.800;9.086;2023-04-30T07:27:34;97947.94;;;12.50;73.64
71938;BME280;59810;48.800;9.086;2023-04-30T07:29:59;97955.03;;;12.56;71.76
71938;BME280;59810;48.800;9.086;2023-04-30T07:32:25;97949.94;;;12.60;71.33
71938;BME280;59810;48.800;9.086;2023-04-30T07:34:52;97950.28;;;12.41;70.08
71938;BME280;59810;48.800;9.086;2023-04-30T07:37:17;97948.56;;;12.35;70.50
71938;BME280;59810;48.800;9.086;2023-04-30T07:39:43;97945.50;;;12.27;70.49
71938;BME280;59810;48.800;9.086;2023-04-30T07:42:10;97947.28;;;12.38;71.28
71938;BME280;59810;48.800;9.086;2023-04-30T07:44:35;97943.63;;;12.54;70.62
71938;BME280;59810;48.800;9.086;2023-04-30T07:47:01;97935.00;;;12.57;70.62
71938;BME280;59810;48.800;9.086;2023-04-30T07:49:27;97940.41;;;12.57;69.37
71938;BME280;59810;48.800;9.086;2023-04-30T07:51:53;97944.31;;;12.66;70.55
71938;BME280;59810;48.800;9.086;2023-04-30T07:54:18;97940.94;;;12.54;69.16
71938;BME280;59810;48.800;9.086;2023-04-30T07:56:46;97939.69;;;12.67;70.51
71938;BME280;59810;48.800;9.086;2023-04-30T07:59:13;97938.88;;;12.66;70.75
71938;BME280;59810;48.800;9.086;2023-04-30T08:01:40;97930.00;;;12.71;69.82
71938;BME280;59810;48.800;9.086;2023-04-30T08:04:10;97938.06;;;12.66;68.98
71938;BME280;59810;48.800;9.086;2023-04-30T08:06:36;97938.88;;;12.66;70.19
71938;BME280;59810;48.800;9.086;2023-04-30T08:09:01;97931.34;;;12.68;70.14
71938;BME280;59810;48.800;9.086;2023-04-30T08:11:27;97938.41;;;12.69;68.40
71938;BME280;59810;48.800;9.086;2023-04-30T08:13:53;97935.72;;;12.74;68.95
71938;BME280;59810;48.800;9.086;2023-04-30T08:16:18;97933.47;;;12.93;69.19
71938;BME280;59810;48.800;9.086;2023-04-30T08:18:46;97940.00;;;12.97;68.27
71938;BME280;59810;48.800;9.086;2023-04-30T08:21:13;97939.81;;;13.04;68.63
71938;BME280;59810;48.800;9.086;2023-04-30T08:23:39;97940.50;;;13.21;69.06
71938;BME280;59810;48.800;9.086;2023-04-30T08:26:04;97939.66;;;13.53;72.18
71938;BME280;59810;48.800;9.086;2023-04-30T08:28:30;97943.34;;;13.79;66.53
71938;BME280;59810;48.800;9.086;2023-04-30T08:30:58;97942.06;;;13.96;63.97
71938;BME280;59810;48.800;9.086;2023-04-30T08:33:25;97944.53;;;13.98;62.71
71938;BME280;59810;48.800;9.086;2023-04-30T08:35:51;97942.44;;;14.10;63.96
71938;BME280;59810;48.800;9.086;2023-04-30T08:38:16;97941.13;;;14.23;62.67
71938;BME280;59810;48.800;9.086;2023-04-30T08:40:52;97939.53;;;14.32;62.00
71938;BME280;59810;48.800;9.086;2023-04-30T08:43:20;97941.19;;;14.33;62.16
71938;BME280;59810;48.800;9.086;2023-04-30T08:45:49;97937.69;;;14.43;59.81
71938;BME280;59810;48.800;9.086;2023-04-30T08:48:15;97930.91;;;14.45;60.80
71938;BME280;59810;48.800;9.086;2023-04-30T08:50:42;97934.78;;;14.70;60.37
71938;BME280;59810;48.800;9.086;2023-04-30T08:53:11;97927.19;;;14.82;58.81
71938;BME280;59810;48.800;9.086;2023-04-30T08:55:38;97933.19;;;14.99;57.71
71938;BME280;59810;48.800;9.086;2023-04-30T08:58:03;97934.28;;;15.03;56.59
71938;BME280;59810;48.800;9.086;2023-04-30T09:00:31;97926.13;;;14.98;56.55
71938;BME280;59810;48.800;9.086;2023-04-30T09:02:57;97935.91;;;15.04;55.53
71938;BME280;59810;48.800;9.086;2023-04-30T09:05:22;97930.19;;;14.90;55.90
71938;BME280;59810;48.800;9.086;2023-04-30T09:07:47;97933.16;;;14.89;55.61
71938;BME280;59810;48.800;9.086;2023-04-30T09:10:17;97932.09;;;14.85;55.15
71938;BME280;59810;48.800;9.086;2023-04-30T09:12:44;97933.91;;;14.54;54.33
71938;BME280;59810;48.800;9.086;2023-04-30T09:15:22;97936.91;;;14.62;55.58
71938;BME280;59810;48.800;9.086;2023-04-30T09:17:47;97925.81;;;14.74;54.11
71938;BME280;59810;48.800;9.086;2023-04-30T09:20:22;97931.25;;;14.74;53.60
71938;BME280;59810;48.800;9.086;2023-04-30T09:23:04;97927.44;;;14.75;53.08
71938;BME280;59810;48.800;9.086;2023-04-30T09:25:37;97935.59;;;14.65;52.40
71938;BME280;59810;48.800;9.086;2023-04-30T09:28:10;97934.41;;;14.41;53.38
71938;BME280;59810;48.800;9.086;2023-04-30T09:30:41;97941.19;;;14.33;54.09
71938;BME280;59810;48.800;9.086;2023-04-30T09:33:09;97941.25;;;14.53;55.43
71938;BME280;59810;48.800;9.086;2023-04-30T09:35:36;97933.09;;;14.58;53.82
71938;BME280;59810;48.800;9.086;2023-04-30T09:38:04;97933.09;;;14.58;52.37
71938;BME280;59810;48.800;9.086;2023-04-30T09:40:39;97931.00;;;14.81;52.31
71938;BME280;59810;48.800;9.086;2023-04-30T09:43:05;97939.41;;;14.94;51.35
71938;BME280;59810;48.800;9.086;2023-04-30T09:48:14;97935.66;;;15.11;51.04
71938;BME280;59810;48.800;9.086;2023-04-30T09:50:42;97930.19;;;15.21;50.93
71938;BME280;59810;48.800;9.086;2023-04-30T09:53:10;97929.91;;;15.27;49.39
71938;BME280;59810;48.800;9.086;2023-04-30T09:55:41;97934.84;;;15.31;50.00
71938;BME280;59810;48.800;9.086;2023-04-30T09:58:09;97930.44;;;15.55;50.04
71938;BME280;59810;48.800;9.086;2023-04-30T10:00:58;97923.13;;;15.71;49.62
71938;BME280;59810;48.800;9.086;2023-04-30T10:03:38;97929.84;;;15.88;49.29
71938;BME280;59810;48.800;9.086;2023-04-30T10:06:05;97932.59;;;15.94;50.06
71938;BME280;59810;48.800;9.086;2023-04-30T10:08:42;97927.16;;;15.94;48.85
71938;BME280;59810;48.800;9.086;2023-04-30T10:11:09;97932.81;;;16.07;49.59
71938;BME280;59810;48.800;9.086;2023-04-30T10:13:53;97931.50;;;15.95;49.87
71938;BME280;59810;48.800;9.086;2023-04-30T10:19:29;97938.38;;;15.67;49.97
71938;BME280;59810;48.800;9.086;2023-04-30T10:21:58;97938.09;;;15.63;50.57
71938;BME280;59810;48.800;9.086;2023-04-30T10:24:25;97933.44;;;15.48;50.87
71938;BME280;59810;48.800;9.086;2023-04-30T10:26:51;97934.81;;;15.51;51.02
71938;BME280;59810;48.800;9.086;2023-04-30T10:29:19;97923.63;;;15.78;51.26
71938;BME280;59810;48.800;9.086;2023-04-30T10:31:48;97926.59;;;15.92;50.02
71938;BME280;59810;48.800;9.086;2023-04-30T10:34:45;97914.59;;;16.03;51.26
71938;BME280;59810;48.800;9.086;2023-04-30T10:37:35;97913.75;;;16.07;50.21
71938;BME280;59810;48.800;9.086;2023-04-30T10:40:02;97909.38;;;16.06;49.26
71938;BME280;59810;48.800;9.086;2023-04-30T10:42:29;97923.31;;;15.90;49.44
71938;BME280;59810;48.800;9.086;2023-04-30T10:45:01;97916.03;;;15.70;49.85
71938;BME280;59810;48.800;9.086;2023-04-30T10:47:28;97913.78;;;15.92;49.22
71938;BME280;59810;48.800;9.086;2023-04-30T10:50:02;97908.66;;;15.75;47.64
71938;BME280;59810;48.800;9.086;2023-04-30T10:52:29;97909.72;;;15.84;48.01
71938;BME280;59810;48.800;9.086;2023-04-30T10:54:56;97903.81;;;15.62;48.34
71938;BME280;59810;48.800;9.086;2023-04-30T10:57:21;97899.09;;;15.88;49.54
71938;BME280;59810;48.800;9.086;2023-04-30T11:02:44;97896.31;;;16.08;47.87
71938;BME280;59810;48.800;9.086;2023-04-30T11:05:12;97890.00;;;16.18;48.85
71938;BME280;59810;48.800;9.086;2023-04-30T11:08:14;97898.31;;;16.42;48.50
71938;BME280;59810;48.800;9.086;2023-04-30T11:10:57;97899.84;;;16.63;47.55
71938;BME280;59810;48.800;9.086;2023-04-30T11:13:26;97902.84;;;16.62;47.45
71938;BME280;59810;48.800;9.086;2023-04-30T11:15:52;97900.81;;;16.38;47.52
71938;BME280;59810;48.800;9.086;2023-04-30T11:18:18;97895.69;;;16.22;47.39
71938;BME280;59810;48.800;9.086;2023-04-30T11:20:49;97896.94;;;16.44;47.03
71938;BME280;59810;48.800;9.086;2023-04-30T11:23:22;97886.31;;;16.43;47.22
71938;BME280;59810;48.800;9.086;2023-04-30T11:25:48;97883.78;;;16.67;47.20
71938;BME280;59810;48.800;9.086;2023-04-30T11:28:20;97887.75;;;16.79;46.77
71938;BME280;59810;48.800;9.086;2023-04-30T11:30:58;97885.28;;;16.83;45.38
71938;BME280;59810;48.800;9.086;2023-04-30T11:33:25;97871.84;;;16.47;45.94
71938;BME280;59810;48.800;9.086;2023-04-30T11:35:54;97884.59;;;16.62;46.26
71938;BME280;59810;48.800;9.086;2023-04-30T11:38:33;97897.72;;;16.99;47.99
71938;BME280;59810;48.800;9.086;2023-04-30T11:41:00;97897.25;;;17.21;45.92
71938;BME280;59810;48.800;9.086;2023-04-30T11:46:09;97888.06;;;17.12;46.94
71938;BME280;59810;48.800;9.086;2023-04-30T11:48:39;97884.41;;;16.93;46.28
71938;BME280;59810;48.800;9.086;2023-04-30T11:51:19;97886.81;;;16.99;46.79
71938;BME280;59810;48.800;9.086;2023-04-30T11:53:46;97883.31;;;16.94;46.58
71938;BME280;59810;48.800;9.086;2023-04-30T11:56:12;97881.84;;;16.67;46.58
71938;BME280;59810;48.800;9.086;2023-04-30T11:58:38;97878.84;;;16.69;47.44
71938;BME280;59810;48.800;9.086;2023-04-30T12:01:05;97874.44;;;16.73;46.82
71938;BME280;59810;48.800;9.086;2023-04-30T12:03:32;97876.44;;;16.52;47.06
71938;BME280;59810;48.800;9.086;2023-04-30T12:05:57;97865.88;;;16.45;46.79
71938;BME280;59810;48.800;9.086;2023-04-30T12:08:23;97865.38;;;16.38;46.61
71938;BME280;59810;48.800;9.086;2023-04-30T12:10:48;97862.25;;;16.11;47.15
71938;BME280;59810;48.800;9.086;2023-04-30T12:13:14;97857.00;;;16.19;47.54
71938;BME280;59810;48.800;9.086;2023-04-30T12:15:56;97855.50;;;16.47;47.31
71938;BME280;59810;48.800;9.086;2023-04-30T12:18:22;97858.91;;;17.07;46.69
71938;BME280;59810;48.800;9.086;2023-04-30T12:20:48;97868.09;;;17.17;45.80
71938;BME280;59810;48.800;9.086;2023-04-30T12:23:14;97866.22;;;16.78;44.23
71938;BME280;59810;48.800;9.086;2023-04-30T12:25:41;97868.91;;;16.83;46.20
71938;BME280;59810;48.800;9.086;2023-04-30T12:28:10;97870.88;;;16.77;46.43
71938;BME280;59810;48.800;9.086;2023-04-30T12:30:36;97866.44;;;16.42;47.08
71938;BME280;59810;48.800;9.086;2023-04-30T12:33:04;97877.41;;;16.32;47.67
71938;BME280;59810;48.800;9.086;2023-04-30T12:35:30;97870.22;;;16.46;47.37
71938;BME280;59810;48.800;9.086;2023-04-30T12:38:04;97865.84;;;16.50;47.83
71938;BME280;59810;48.800;9.086;2023-04-30T12:40:31;97863.59;;;16.58;48.10
71938;BME280;59810;48.800;9.086;2023-04-30T12:43:04;97865.31;;;16.48;45.94
71938;BME280;59810;48.800;9.086;2023-04-30T12:48:08;97860.56;;;16.20;46.46
71938;BME280;59810;48.800;9.086;2023-04-30T12:50:33;97860.53;;;16.30;47.58
71938;BME280;59810;48.800;9.086;2023-04-30T12:53:02;97857.91;;;16.54;47.84
71938;BME280;59810;48.800;9.086;2023-04-30T12:55:27;97853.22;;;16.70;46.83
71938;BME280;59810;48.800;9.086;2023-04-30T12:58:12;97840.78;;;16.93;47.45
71938;BME280;59810;48.800;9.086;2023-04-30T13:00:49;97847.31;;;17.21;47.09
71938;BME280;59810;48.800;9.086;2023-04-30T13:03:19;97845.03;;;17.33;46.07
71938;BME280;59810;48.800;9.086;2023-04-30T13:05:51;97838.34;;;17.44;46.38
71938;BME280;59810;48.800;9.086;2023-04-30T13:08:20;97837.94;;;17.32;45.51
71938;BME280;59810;48.800;9.086;2023-04-30T13:10:46;97831.38;;;17.04;46.09
71938;BME280;59810;48.800;9.086;2023-04-30T13:13:13;97837.94;;;17.32;46.89
71938;BME280;59810;48.800;9.086;2023-04-30T13:15:39;97835.78;;;17.58;45.56
71938;BME280;59810;48.800;9.086;2023-04-30T13:18:05;97825.78;;;17.72;45.22
71938;BME280;59810;48.800;9.086;2023-04-30T13:20:36;97827.28;;;17.59;45.12
71938;BME280;59810;48.800;9.086;2023-04-30T13:23:01;97820.72;;;17.60;45.61
71938;BME280;59810;48.800;9.086;2023-04-30T13:27:55;97813.94;;;17.58;45.07
71938;BME280;59810;48.800;9.086;2023-04-30T13:30:22;97815.75;;;17.67;44.88
71938;BME280;59810;48.800;9.086;2023-04-30T13:32:47;97817.78;;;17.52;45.01
71938;BME280;59810;48.800;9.086;2023-04-30T13:35:12;97813.69;;;18.02;44.80
71938;BME280;59810;48.800;9.086;2023-04-30T13:37:38;97814.59;;;18.54;44.24
71938;BME280;59810;48.800;9.086;2023-04-30T13:40:07;97814.28;;;18.74;42.89